Time;durP1;ratioP1;P1;durP2;ratioP2;P2;SDS_P1;SDS_P2;PMS_P1;PMS_P2;Temp;Humidity;BMP_temperature;BMP_pressure;BME280_temperature;BME280_humidity;BME280_pressure;Samples;Min_cycle;Max_cycle;Signal;HPM_P1;HPM_P2
2023/04/15 00:00:42;;;;;;;10.25;4.10;;;7.70;99.90;;;;;;5094251;28;20101;-81
2023/04/15 00:03:08;;;;;;;10.50;4.03;;;7.70;99.90;;;;;;5060679;28;20040;-81
2023/04/15 00:05:34;;;;;;;9.32;4.03;;;7.70;99.90;;;;;;5111428;28;20105;-81
2023/04/15 00:08:00;;;;;;;9.18;4.75;;;7.60;99.90;;;;;;5110919;28;20088;-81
2023/04/15 00:10:26;;;;;;;9.65;4.70;;;7.60;99.90;;;;;;5077679;28;20040;-81
2023/04/15 00:12:52;;;;;;;;;;;7.60;99.90;;;;;;5095128;28;20322;-81
2023/04/15 00:15:18;;;;;;;12.98;5.32;;;7.60;99.90;;;;;;5110722;28;19926;-81
2023/04/15 00:17:44;;;;;;;11.65;5.30;;;8.10;99.90;;;;;;5094022;28;20039;-81
2023/04/15 00:20:10;;;;;;;11.00;5.45;;;7.50;99.90;;;;;;5094041;28;20044;-81
2023/04/15 00:22:36;;;;;;;14.05;4.97;;;7.40;99.90;;;;;;5077555;28;20050;-81
2023/04/15 00:25:02;;;;;;;10.50;5.18;;;7.40;99.90;;;;;;5093842;28;20040;-81
2023/04/15 00:27:28;;;;;;;11.23;5.32;;;7.40;99.90;;;;;;5094283;28;20031;-81
2023/04/15 00:29:55;;;;;;;9.68;4.55;;;7.40;99.90;;;;;;5094262;28;20111;-81
2023/04/15 00:32:20;;;;;;;;;;;7.30;99.90;;;;;;5094790;28;20074;-81
2023/04/15 00:34:49;;;;;;;10.07;4.50;;;7.30;99.90;;;;;;5111667;28;19951;-81
2023/04/15 00:37:15;;;;;;;8.57;4.57;;;7.30;99.90;;;;;;5110800;28;20077;-81
2023/04/15 00:39:41;;;;;;;10.65;4.85;;;7.30;99.90;;;;;;5093515;28;20434;-81
2023/04/15 00:42:07;;;;;;;12.05;5.95;;;7.20;99.90;;;;;;5093408;28;20479;-81
2023/04/15 00:44:33;;;;;;;10.77;5.53;;;7.20;99.90;;;;;;5077415;28;20035;-81
2023/04/15 00:47:01;;;;;;;11.32;4.95;;;7.20;99.90;;;;;;5094376;28;20448;-81
2023/04/15 00:49:27;;;;;;;9.25;5.05;;;7.20;99.90;;;;;;5111857;28;20044;-81
2023/04/15 00:51:53;;;;;;;11.45;5.07;;;7.20;99.90;;;;;;5081036;28;20038;-81
2023/04/15 00:54:20;;;;;;;9.90;4.90;;;7.10;99.90;;;;;;5081064;28;20122;-81
2023/04/15 00:56:45;;;;;;;;;;;7.10;99.90;;;;;;5098356;28;20091;-81
2023/04/15 00:59:12;;;;;;;9.20;5.18;;;7.00;99.90;;;;;;5097377;28;20002;-81
2023/04/15 01:01:38;;;;;;;12.88;5.07;;;7.00;99.90;;;;;;5114639;28;20031;-81
2023/04/15 01:04:04;;;;;;;9.77;4.93;;;7.00;99.90;;;;;;5097369;28;20039;-81
2023/04/15 01:06:34;;;;;;;9.85;5.45;;;7.00;99.90;;;;;;5097626;28;20035;-81
2023/04/15 01:09:00;;;;;;;9.25;4.95;;;6.90;99.90;;;;;;5114907;28;20479;-81
2023/04/15 01:11:26;;;;;;;12.05;5.72;;;6.90;99.90;;;;;;5114708;28;20144;-81
2023/04/15 01:13:54;;;;;;;10.93;5.82;;;7.20;99.90;;;;;;5097345;28;20057;-81
2023/04/15 01:16:20;;;;;;;12.55;5.65;;;7.00;99.90;;;;;;5114031;28;20198;-81
2023/04/15 01:18:45;;;;;;;10.32;5.13;;;6.90;99.90;;;;;;5079434;28;20082;-81
2023/04/15 01:21:12;;;;;;;13.75;5.82;;;6.90;99.90;;;;;;5097368;28;20564;-81
2023/04/15 01:23:38;;;;;;;11.38;6.25;;;6.90;99.90;;;;;;5094683;28;20031;-81
2023/04/15 01:26:06;;;;;;;15.18;7.18;;;6.90;99.90;;;;;;5080349;28;20032;-81
2023/04/15 01:28:32;;;;;;;19.27;8.05;;;6.90;99.90;;;;;;5097439;28;20036;-81
2023/04/15 01:31:10;;;;;;;12.48;7.07;;;6.80;99.90;;;;;;5097522;28;20077;-81
2023/04/15 01:33:37;;;;;;;13.85;7.45;;;6.80;99.90;;;;;;5095215;28;20100;-81
2023/04/15 01:36:03;;;;;;;;;;;6.80;99.90;;;;;;5114026;28;20044;-81
2023/04/15 01:38:29;;;;;;;16.90;7.72;;;6.80;99.90;;;;;;5096580;28;19916;-81
2023/04/15 01:40:55;;;;;;;15.98;7.85;;;6.70;99.90;;;;;;5114259;28;20035;-81
2023/04/15 01:43:21;;;;;;;14.90;8.38;;;6.70;99.90;;;;;;5096983;28;20066;-81
2023/04/15 01:45:46;;;;;;;14.70;7.90;;;6.70;99.90;;;;;;5063761;28;20093;-81
2023/04/15 01:48:12;;;;;;;18.27;8.00;;;6.70;99.90;;;;;;5096659;28;20055;-81
2023/04/15 01:50:38;;;;;;;14.23;6.97;;;6.70;99.90;;;;;;5096999;28;20047;-81
2023/04/15 01:53:04;;;;;;;14.73;7.85;;;6.80;99.90;;;;;;5097264;28;20445;-81
2023/04/15 01:55:30;;;;;;;15.05;8.18;;;6.70;99.90;;;;;;5113615;28;20036;-82
2023/04/15 01:57:56;;;;;;;16.67;8.30;;;6.60;99.90;;;;;;5080161;28;20036;-82
2023/04/15 02:00:22;;;;;;;14.30;7.97;;;6.60;99.90;;;;;;5095692;28;20461;-82
2023/04/15 02:02:48;;;;;;;14.45;7.40;;;6.60;99.90;;;;;;5095836;28;20104;-82
2023/04/15 02:05:14;;;;;;;13.77;7.85;;;6.50;99.90;;;;;;5096406;28;20126;-81
2023/04/15 02:07:42;;;;;;;14.82;7.88;;;6.50;99.90;;;;;;5097127;28;20035;-82
2023/04/15 02:10:09;;;;;;;15.40;7.63;;;6.50;99.90;;;;;;5096371;28;20035;-82
2023/04/15 02:12:35;;;;;;;16.77;8.68;;;6.50;99.90;;;;;;5096605;28;20031;-81
2023/04/15 02:15:01;;;;;;;14.48;8.00;;;6.90;99.90;;;;;;5113866;28;20043;-81
2023/04/15 02:17:26;;;;;;;14.82;8.07;;;6.50;99.90;;;;;;5096276;28;20036;-82
2023/04/15 02:19:55;;;;;;;12.27;7.28;;;6.40;99.90;;;;;;5096248;28;20040;-81
2023/04/15 02:22:21;;;;;;;11.60;5.60;;;6.40;99.90;;;;;;5096684;28;20044;-82
2023/04/15 02:24:47;;;;;;;13.43;6.57;;;6.70;99.90;;;;;;5113258;28;20046;-82
2023/04/15 02:27:17;;;;;;;14.40;6.57;;;6.50;99.90;;;;;;5095304;28;20040;-81
2023/04/15 02:29:46;;;;;;;10.73;5.68;;;6.40;99.90;;;;;;5112997;28;20036;-81
2023/04/15 02:32:12;;;;;;;9.30;5.28;;;6.40;99.90;;;;;;5112943;28;20092;-81
2023/04/15 02:34:41;;;;;;;11.65;5.63;;;6.40;99.90;;;;;;5096229;28;20088;-81
2023/04/15 02:37:08;;;;;;;11.30;6.32;;;6.30;99.90;;;;;;5095866;28;20031;-81
2023/04/15 02:39:34;;;;;;;11.60;6.18;;;6.30;99.90;;;;;;5095952;28;20466;-82
2023/04/15 02:42:00;;;;;;;13.23;6.68;;;6.30;99.90;;;;;;5095729;28;20070;-81
2023/04/15 02:44:26;;;;;;;13.70;6.35;;;6.30;99.90;;;;;;5112800;28;20050;-81
2023/04/15 02:46:53;;;;;;;11.55;6.78;;;6.30;99.90;;;;;;5078693;28;20042;-81
2023/04/15 02:49:22;;;;;;;13.18;7.20;;;6.40;99.90;;;;;;5062129;28;20396;-81
2023/04/15 02:51:48;;;;;;;13.48;6.47;;;6.20;99.90;;;;;;5095442;28;20082;-81
2023/04/15 02:54:25;;;;;;;13.00;6.97;;;6.40;99.90;;;;;;5095461;28;20543;-81
2023/04/15 02:56:54;;;;;;;13.45;7.32;;;6.20;99.90;;;;;;5076738;28;20040;-82
2023/04/15 02:59:20;;;;;;;13.85;7.03;;;6.50;99.90;;;;;;5095406;28;20036;-81
2023/04/15 03:01:45;;;;;;;15.75;7.40;;;6.20;99.90;;;;;;5112308;28;20043;-81
2023/04/15 03:04:12;;;;;;;14.35;7.70;;;6.10;99.90;;;;;;5095302;28;20053;-81
2023/04/15 03:06:38;;;;;;;16.30;7.53;;;6.50;99.90;;;;;;5095486;28;20398;-82
2023/04/15 03:09:04;;;;;;;16.60;7.80;;;6.10;99.90;;;;;;5078472;28;20106;-81
2023/04/15 03:11:34;;;;;;;18.67;7.25;;;6.50;99.90;;;;;;5111409;28;20070;-81
2023/04/15 03:13:59;;;;;;;16.92;7.25;;;6.10;99.90;;;;;;5111538;28;20123;-81
2023/04/15 03:16:26;;;;;;;16.40;7.90;;;6.00;99.90;;;;;;5111733;28;20535;-82
2023/04/15 03:18:51;;;;;;;13.60;7.82;;;6.00;99.90;;;;;;5095223;28;20035;-81
2023/04/15 03:21:18;;;;;;;15.53;8.10;;;6.10;99.90;;;;;;5094705;28;20445;-82
2023/04/15 03:23:44;;;;;;;16.00;8.93;;;6.00;99.90;;;;;;5094861;28;20043;-82
2023/04/15 03:26:29;;;;;;;16.63;8.32;;;6.00;99.90;;;;;;5111090;28;20036;-81
2023/04/15 03:28:56;;;;;;;13.60;7.78;;;5.90;99.90;;;;;;5075112;28;20040;-81
2023/04/15 03:31:22;;;;;;;16.83;8.27;;;5.90;99.90;;;;;;5091891;28;20034;-81
2023/04/15 03:33:48;;;;;;;18.60;8.55;;;5.90;99.90;;;;;;5111120;28;20040;-81
2023/04/15 03:36:14;;;;;;;14.43;7.85;;;5.90;99.90;;;;;;5094917;28;20119;-82
2023/04/15 03:38:40;;;;;;;16.45;8.35;;;5.90;99.90;;;;;;5111686;28;20080;-82
2023/04/15 03:41:06;;;;;;;17.85;7.55;;;5.90;99.90;;;;;;5078299;28;20487;-81
2023/04/15 03:43:32;;;;;;;16.90;9.02;;;5.90;99.90;;;;;;5075671;28;20036;-82
2023/04/15 03:45:57;;;;;;;17.77;8.35;;;5.90;99.90;;;;;;5095075;28;20027;-81
2023/04/15 03:48:23;;;;;;;16.67;8.75;;;5.80;99.90;;;;;;5094349;28;20079;-82
2023/04/15 03:50:49;;;;;;;16.00;8.68;;;5.80;99.90;;;;;;5094154;28;20027;-81
2023/04/15 03:53:14;;;;;;;19.27;8.82;;;5.90;99.90;;;;;;5111228;28;20145;-81
2023/04/15 03:55:40;;;;;;;19.08;8.52;;;5.80;99.90;;;;;;5077426;28;20043;-81
2023/04/15 03:58:06;;;;;;;16.65;8.48;;;5.80;99.90;;;;;;5094892;28;20192;-82
2023/04/15 04:00:32;;;;;;;15.20;8.17;;;5.80;99.90;;;;;;5094152;28;20047;-81
2023/04/15 04:02:57;;;;;;;19.40;8.50;;;5.80;99.90;;;;;;5094083;28;20819;-81
2023/04/15 04:05:23;;;;;;;16.13;8.23;;;5.80;99.90;;;;;;5094391;28;20164;-81
2023/04/15 04:07:49;;;;;;;19.45;9.25;;;5.80;99.90;;;;;;5111369;28;20036;-81
2023/04/15 04:10:15;;;;;;;18.23;9.00;;;5.70;99.90;;;;;;5094648;28;20437;-81
2023/04/15 04:12:40;;;;;;;17.40;8.07;;;5.70;99.90;;;;;;5108588;28;20043;-81
2023/04/15 04:15:07;;;;;;;16.65;8.13;;;5.80;99.90;;;;;;5111237;28;20051;-81
2023/04/15 04:17:33;;;;;;;23.30;11.00;;;5.80;99.90;;;;;;5077285;28;20119;-81
2023/04/15 04:19:58;;;;;;;17.13;8.60;;;5.80;99.90;;;;;;5094238;28;20118;-81
2023/04/15 04:22:24;;;;;;;19.27;9.67;;;6.20;99.90;;;;;;5076505;28;20465;-81
2023/04/15 04:24:50;;;;;;;18.70;9.27;;;5.70;99.90;;;;;;5062602;28;20038;-81
2023/04/15 04:27:16;;;;;;;16.30;7.72;;;5.70;99.90;;;;;;5081261;28;20043;-82
2023/04/15 04:29:41;;;;;;;18.88;8.45;;;5.70;99.90;;;;;;5098377;28;20055;-81
2023/04/15 04:32:07;;;;;;;19.77;8.75;;;5.70;99.90;;;;;;5115318;28;20046;-81
2023/04/15 04:34:33;;;;;;;17.50;8.20;;;5.70;99.90;;;;;;5062487;28;20545;-82
2023/04/15 04:36:59;;;;;;;16.60;7.95;;;5.70;99.90;;;;;;5081683;28;20066;-81
2023/04/15 04:39:24;;;;;;;18.65;8.98;;;5.70;99.90;;;;;;5114967;28;20046;-81
2023/04/15 04:41:51;;;;;;;15.95;8.23;;;5.60;99.90;;;;;;5081364;28;20043;-81
2023/04/15 04:44:16;;;;;;;;;;;5.70;99.90;;;;;;5115315;28;20050;-81
2023/04/15 04:46:42;;;;;;;17.38;8.77;;;5.60;99.90;;;;;;5115093;28;19919;-81
2023/04/15 04:49:08;;;;;;;14.40;8.00;;;5.70;99.90;;;;;;5097759;28;20047;-81
2023/04/15 04:51:34;;;;;;;14.68;7.75;;;5.60;99.90;;;;;;5097817;28;20106;-81
2023/04/15 04:54:00;;;;;;;17.50;8.23;;;5.70;99.90;;;;;;5097828;28;20137;-81
2023/04/15 04:56:26;;;;;;;15.93;7.63;;;5.60;99.90;;;;;;5097557;28;20039;-81
2023/04/15 04:58:51;;;;;;;15.70;7.70;;;5.60;99.90;;;;;;5081065;28;20479;-81
2023/04/15 05:01:17;;;;;;;13.40;7.80;;;5.70;99.90;;;;;;5080588;28;20277;-81
2023/04/15 05:03:43;;;;;;;13.80;7.30;;;5.60;99.90;;;;;;5097524;28;20069;-82
2023/04/15 05:06:09;;;;;;;13.70;7.60;;;5.60;99.90;;;;;;5114392;28;20040;-81
2023/04/15 05:08:35;;;;;;;13.57;7.30;;;5.70;99.90;;;;;;5096961;28;20093;-81
2023/04/15 05:11:02;;;;;;;15.32;7.50;;;5.70;99.90;;;;;;5097155;28;20054;-81
2023/04/15 05:13:28;;;;;;;18.60;7.88;;;5.60;99.90;;;;;;5080271;28;20092;-81
2023/04/15 05:15:55;;;;;;;15.75;8.38;;;5.70;99.90;;;;;;5114787;28;20036;-81
2023/04/15 05:18:21;;;;;;;17.13;9.02;;;5.60;99.90;;;;;;5114786;28;20050;-81
2023/04/15 05:20:48;;;;;;;16.10;7.72;;;5.60;99.90;;;;;;5097230;28;20047;-81
2023/04/15 05:23:15;;;;;;;13.60;7.72;;;5.60;99.90;;;;;;5114399;28;20089;-81
2023/04/15 05:25:41;;;;;;;17.60;9.10;;;5.70;99.90;;;;;;5097021;28;20046;-84
2023/04/15 05:28:06;;;;;;;15.03;7.77;;;5.70;99.90;;;;;;5096446;28;20039;-84
2023/04/15 05:30:32;;;;;;;16.40;8.33;;;5.70;99.90;;;;;;5113204;28;20722;-84
2023/04/15 05:32:58;;;;;;;18.02;8.43;;;5.80;99.90;;;;;;5077756;28;20081;-84
2023/04/15 05:35:24;;;;;;;15.95;8.43;;;5.80;99.90;;;;;;5113390;28;20035;-84
2023/04/15 05:37:50;;;;;;;16.08;8.30;;;5.80;99.90;;;;;;5113447;28;20079;-84
2023/04/15 05:40:16;;;;;;;15.93;7.93;;;5.80;99.90;;;;;;5113774;28;20131;-84
2023/04/15 05:42:41;;;;;;;17.10;9.77;;;5.90;99.90;;;;;;5113457;28;20035;-84
2023/04/15 05:45:08;;;;;;;18.35;9.18;;;6.00;99.90;;;;;;5079478;28;20296;-85
2023/04/15 05:47:37;;;;;;;18.08;8.13;;;6.00;99.90;;;;;;5114751;28;20047;-83
2023/04/15 05:50:03;;;;;;;16.33;8.15;;;6.10;99.90;;;;;;5095951;28;20373;-83
2023/04/15 05:52:30;;;;;;;;;;;6.20;99.90;;;;;;5082539;28;20122;-81
2023/04/15 05:54:56;;;;;;;25.98;8.88;;;6.30;99.90;;;;;;5114451;28;19934;-81
2023/04/15 05:57:21;;;;;;;16.90;8.60;;;6.30;99.90;;;;;;5113998;28;20122;-82
2023/04/15 05:59:48;;;;;;;16.52;8.27;;;6.40;99.90;;;;;;5113195;28;20118;-84
2023/04/15 06:02:13;;;;;;;16.17;8.88;;;6.50;99.90;;;;;;5113840;28;20043;-85
2023/04/15 06:04:39;;;;;;;13.75;8.00;;;6.70;99.90;;;;;;5113841;28;20072;-86
2023/04/15 06:07:05;;;;;;;16.80;9.00;;;6.80;99.90;;;;;;5113712;28;20032;-85
2023/04/15 06:09:31;;;;;;;19.15;8.63;;;6.90;99.90;;;;;;5096629;28;20035;-84
2023/04/15 06:11:58;;;;;;;15.87;8.67;;;6.90;99.90;;;;;;5113402;28;20038;-85
2023/04/15 06:14:23;;;;;;;16.45;7.95;;;7.10;99.90;;;;;;5113082;28;20063;-84
2023/04/15 06:16:49;;;;;;;17.10;7.90;;;7.20;99.90;;;;;;5112748;28;20556;-85
2023/04/15 06:19:15;;;;;;;15.88;7.97;;;7.30;99.90;;;;;;5113057;28;20039;-85
2023/04/15 06:21:41;;;;;;;13.80;7.05;;;7.40;99.90;;;;;;5110044;28;20044;-85
2023/04/15 06:24:06;;;;;;;15.40;7.25;;;7.60;99.90;;;;;;5096029;28;20031;-84
2023/04/15 06:26:32;;;;;;;13.85;7.38;;;7.60;99.90;;;;;;5095459;28;20038;-84
2023/04/15 06:28:58;;;;;;;14.93;7.55;;;7.80;99.90;;;;;;5095963;28;20111;-83
2023/04/15 06:31:24;;;;;;;14.73;7.15;;;7.90;99.90;;;;;;5112951;28;20031;-86
2023/04/15 06:33:49;;;;;;;14.67;7.83;;;8.10;99.90;;;;;;5112842;28;20400;-85
2023/04/15 06:36:15;;;;;;;11.45;5.95;;;8.20;99.90;;;;;;5096717;28;20138;-84
2023/04/15 06:38:41;;;;;;;11.17;6.00;;;8.30;99.90;;;;;;5096846;28;20011;-85
2023/04/15 06:41:06;;;;;;;13.75;6.65;;;8.40;99.90;;;;;;5097013;28;20639;-85
2023/04/15 06:43:32;;;;;;;11.80;6.65;;;8.40;99.90;;;;;;5063886;28;20039;-84
2023/04/15 06:45:58;;;;;;;12.20;6.95;;;8.60;99.90;;;;;;5113351;28;20114;-84
2023/04/15 06:48:24;;;;;;;11.02;6.30;;;8.70;99.90;;;;;;5079253;28;20048;-84
2023/04/15 06:50:49;;;;;;;10.80;6.10;;;8.80;99.90;;;;;;5128980;27;20109;-84
2023/04/15 06:53:15;;;;;;;13.00;6.53;;;8.90;99.90;;;;;;5097408;28;20047;-84
2023/04/15 06:55:41;;;;;;;11.60;6.18;;;8.90;99.90;;;;;;5096925;28;20096;-84
2023/04/15 06:58:07;;;;;;;11.02;6.22;;;9.00;99.90;;;;;;5096996;28;20169;-84
2023/04/15 07:00:33;;;;;;;11.60;5.90;;;8.90;99.90;;;;;;5096539;28;20071;-86
2023/04/15 07:03:02;;;;;;;10.90;6.13;;;8.90;99.90;;;;;;5095641;28;20028;-85
2023/04/15 07:05:29;;;;;;;14.23;6.35;;;8.90;99.90;;;;;;5095922;28;20035;-85
2023/04/15 07:07:56;;;;;;;14.15;6.35;;;8.90;99.90;;;;;;5111829;28;20040;-85
2023/04/15 07:10:21;;;;;;;14.02;6.88;;;8.90;99.90;;;;;;5113677;28;20078;-85
2023/04/15 07:12:48;;;;;;;14.02;6.90;;;8.90;99.90;;;;;;5107882;28;20043;-85
2023/04/15 07:15:13;;;;;;;12.48;6.72;;;8.80;99.90;;;;;;5095949;28;20074;-86
2023/04/15 07:17:42;;;;;;;13.00;6.60;;;8.90;99.90;;;;;;5095737;28;20074;-85
2023/04/15 07:20:08;;;;;;;13.27;6.85;;;8.90;99.90;;;;;;5113048;28;20096;-85
2023/04/15 07:22:34;;;;;;;11.98;6.63;;;8.90;99.90;;;;;;5112804;28;20674;-85
2023/04/15 07:25:00;;;;;;;15.98;7.00;;;8.90;99.90;;;;;;5112684;28;20046;-85
2023/04/15 07:27:26;;;;;;;11.32;6.25;;;9.00;99.90;;;;;;5096072;28;20035;-85
2023/04/15 07:29:54;;;;;;;15.00;6.32;;;9.00;99.90;;;;;;5112633;28;20035;-85
2023/04/15 07:32:20;;;;;;;10.68;5.78;;;9.00;99.90;;;;;;5110580;28;20035;-85
2023/04/15 07:34:45;;;;;;;11.55;5.25;;;9.00;99.90;;;;;;5094797;28;20406;-85
2023/04/15 07:37:11;;;;;;;9.68;4.78;;;9.10;99.90;;;;;;5094551;28;20118;-84
2023/04/15 07:39:37;;;;;;;8.63;4.63;;;9.10;99.90;;;;;;5078506;28;20084;-86
2023/04/15 07:42:03;;;;;;;11.40;5.15;;;9.10;99.90;;;;;;5094367;28;20028;-84
2023/04/15 07:44:29;;;;;;;9.93;4.97;;;9.10;99.90;;;;;;5111682;28;20085;-84
2023/04/15 07:46:56;;;;;;;10.10;4.90;;;9.20;99.90;;;;;;5111586;28;20036;-85
2023/04/15 07:49:22;;;;;;;9.15;3.67;;;9.10;99.90;;;;;;5111575;28;20126;-84
2023/04/15 07:51:48;;;;;;;8.63;4.68;;;9.10;99.90;;;;;;5110978;28;20055;-84
2023/04/15 07:54:17;;;;;;;8.52;3.78;;;9.00;99.90;;;;;;5094090;28;20048;-84
2023/04/15 07:56:42;;;;;;;11.93;4.65;;;9.10;99.90;;;;;;5110569;28;20031;-84
2023/04/15 07:59:08;;;;;;;9.00;3.90;;;9.00;99.90;;;;;;5110968;28;20043;-87
2023/04/15 08:01:35;;;;;;;9.15;4.22;;;9.10;99.90;;;;;;5111257;28;20046;-85
2023/04/15 08:04:01;;;;;;;7.85;4.10;;;9.20;99.90;;;;;;5110763;28;20048;-85
2023/04/15 08:06:27;;;;;;;8.40;4.00;;;9.30;99.90;;;;;;5111685;28;20649;-85
2023/04/15 08:08:54;;;;;;;8.43;4.60;;;9.40;99.90;;;;;;5111239;28;20097;-84
2023/04/15 08:11:20;;;;;;;11.70;4.88;;;9.50;99.90;;;;;;5094592;28;20043;-84
2023/04/15 08:13:48;;;;;;;8.88;4.55;;;9.50;99.90;;;;;;5091141;28;20104;-84
2023/04/15 08:16:23;;;;;;;8.07;4.63;;;9.40;99.90;;;;;;5111373;28;20110;-86
2023/04/15 08:18:51;;;;;;;8.23;4.03;;;9.40;99.90;;;;;;5109903;28;20452;-83
2023/04/15 08:21:18;;;;;;;8.75;3.75;;;9.30;99.90;;;;;;5093430;28;20430;-83
2023/04/15 08:23:44;;;;;;;8.15;3.45;;;9.40;99.90;;;;;;5107572;28;20016;-83
2023/04/15 08:26:11;;;;;;;8.40;4.25;;;9.40;99.90;;;;;;5093460;28;20043;-83
2023/04/15 08:28:38;;;;;;;6.93;3.33;;;9.30;99.90;;;;;;5076630;28;20063;-83
2023/04/15 08:31:35;;;;;;;8.13;3.60;;;9.30;99.90;;;;;;5108185;28;20074;-83
2023/04/15 08:34:01;;;;;;;6.38;3.45;;;9.30;99.90;;;;;;5092069;28;20066;-83
2023/04/15 08:36:27;;;;;;;10.23;3.70;;;9.20;99.90;;;;;;5075481;28;20043;-83
2023/04/15 08:38:53;;;;;;;8.07;3.22;;;9.10;99.90;;;;;;5075563;28;20529;-83
2023/04/15 08:41:28;;;;;;;7.93;3.10;;;9.10;99.90;;;;;;5109412;28;20401;-83
2023/04/15 08:43:58;;;;;;;6.97;3.15;;;9.10;99.90;;;;;;5109389;28;20467;-83
2023/04/15 08:46:24;;;;;;;8.85;3.33;;;9.10;99.90;;;;;;5109298;28;20043;-83
2023/04/15 08:48:51;;;;;;;;;;;9.00;99.90;;;;;;5109299;28;20540;-83
2023/04/15 08:51:17;;;;;;;4.05;2.83;;;9.00;99.90;;;;;;5109511;28;19977;-83
2023/04/15 08:53:46;;;;;;;6.88;2.58;;;9.00;99.90;;;;;;5092729;28;20420;-83
2023/04/15 08:56:14;;;;;;;4.75;2.95;;;9.00;99.90;;;;;;5092617;28;20397;-83
2023/04/15 08:58:41;;;;;;;6.35;2.50;;;9.00;99.90;;;;;;5109337;28;20044;-83
2023/04/15 09:01:07;;;;;;;4.65;2.25;;;9.10;99.90;;;;;;5092217;28;20046;-82
2023/04/15 09:03:33;;;;;;;5.05;2.10;;;9.10;99.90;;;;;;5092876;28;20043;-83
2023/04/15 09:06:00;;;;;;;7.22;2.20;;;9.20;99.90;;;;;;5092820;28;20506;-83
2023/04/15 09:08:26;;;;;;;;;;;9.20;99.90;;;;;;5109812;28;20043;-82
2023/04/15 09:10:53;;;;;;;4.72;1.75;;;9.20;99.90;;;;;;5093519;28;20007;-83
2023/04/15 09:13:19;;;;;;;3.80;1.80;;;9.10;99.90;;;;;;5113315;28;20377;-83
2023/04/15 09:15:44;;;;;;;4.53;1.80;;;9.00;99.90;;;;;;5113086;28;20093;-83
2023/04/15 09:18:30;;;;;;;3.45;2.00;;;9.00;99.90;;;;;;5079143;28;20843;-83
2023/04/15 09:21:04;;;;;;;4.07;1.92;;;9.10;99.90;;;;;;5112890;28;20112;-83
2023/04/15 09:23:30;;;;;;;4.90;2.28;;;9.10;99.90;;;;;;5095885;28;20036;-83
2023/04/15 09:25:56;;;;;;;9.77;2.28;;;9.10;99.90;;;;;;5095819;28;20062;-83
2023/04/15 09:28:25;;;;;;;3.50;1.63;;;9.10;99.90;;;;;;5112937;28;20071;-83
2023/04/15 09:30:55;;;;;;;5.07;1.60;;;9.20;99.90;;;;;;5095491;28;20070;-83
2023/04/15 09:33:21;;;;;;;2.50;1.45;;;9.30;99.90;;;;;;5113464;28;20498;-82
2023/04/15 09:36:02;;;;;;;3.83;1.40;;;9.30;99.90;;;;;;5095948;28;20122;-83
2023/04/15 09:38:28;;;;;;;2.17;1.20;;;9.30;99.90;;;;;;5113034;28;20048;-83
2023/04/15 09:40:54;;;;;;;2.92;1.30;;;9.40;99.90;;;;;;5112489;28;20098;-82
2023/04/15 09:43:20;;;;;;;4.80;1.30;;;9.50;99.90;;;;;;5095607;28;20036;-83
2023/04/15 09:45:52;;;;;;;4.97;1.60;;;9.50;99.90;;;;;;5112640;28;20047;-82
2023/04/15 09:48:25;;;;;;;4.40;1.50;;;9.50;99.90;;;;;;5112655;28;20452;-83
2023/04/15 09:50:56;;;;;;;3.30;1.50;;;9.60;99.90;;;;;;5112394;28;20047;-83
2023/04/15 09:53:23;;;;;;;4.40;1.50;;;9.70;99.90;;;;;;5095832;28;20040;-83
2023/04/15 09:55:51;;;;;;;3.33;1.13;;;9.80;99.90;;;;;;5113642;28;20140;-82
2023/04/15 09:58:26;;;;;;;3.72;1.45;;;9.80;99.90;;;;;;5095725;28;20043;-83
2023/04/15 10:00:55;;;;;;;2.13;0.90;;;9.80;99.90;;;;;;5094816;28;20062;-82
2023/04/15 10:03:26;;;;;;;1.90;1.13;;;9.70;99.90;;;;;;5095906;28;20051;-83
2023/04/15 10:05:54;;;;;;;2.45;1.08;;;9.60;99.90;;;;;;5094862;28;20096;-82
2023/04/15 10:08:25;;;;;;;2.47;1.40;;;9.60;99.90;;;;;;5078458;28;20043;-83
2023/04/15 10:10:51;;;;;;;3.53;1.20;;;9.70;99.90;;;;;;5095813;28;20047;-83
2023/04/15 10:13:22;;;;;;;2.42;1.13;;;9.70;99.90;;;;;;5112554;28;20047;-83
2023/04/15 10:16:06;;;;;;;1.67;0.82;;;9.80;99.90;;;;;;5079284;28;20044;-83
2023/04/15 10:18:35;;;;;;;2.95;1.13;;;9.90;99.90;;;;;;5095118;28;20051;-83
2023/04/15 10:21:01;;;;;;;3.42;1.23;;;9.90;99.90;;;;;;5111682;28;20043;-82
2023/04/15 10:23:27;;;;;;;4.05;1.52;;;9.90;99.90;;;;;;5094082;28;20032;-82
2023/04/15 10:25:53;;;;;;;3.95;1.40;;;9.70;99.90;;;;;;5111616;28;20040;-83
2023/04/15 10:28:21;;;;;;;5.10;1.77;;;9.80;99.90;;;;;;5112224;28;20555;-83
2023/04/15 10:30:48;;;;;;;7.20;1.50;;;9.80;99.90;;;;;;5111443;28;20074;-83
2023/04/15 10:33:17;;;;;;;2.00;1.35;;;9.80;99.90;;;;;;5094501;28;20043;-83
2023/04/15 10:35:43;;;;;;;3.45;1.48;;;9.70;99.90;;;;;;5112411;28;20044;-83
2023/04/15 10:38:28;;;;;;;;;;;9.70;99.90;;;;;;5112628;28;20058;-83
2023/04/15 10:41:10;;;;;;;3.75;1.83;;;9.60;99.90;;;;;;5111825;28;19925;-82
2023/04/15 10:43:36;;;;;;;6.18;1.40;;;9.70;99.90;;;;;;5112313;28;20135;-83
2023/04/15 10:46:05;;;;;;;7.47;1.50;;;9.70;99.90;;;;;;5094875;28;20047;-83
2023/04/15 10:48:31;;;;;;;3.50;1.52;;;9.70;99.90;;;;;;5111476;28;20131;-83
2023/04/15 10:51:01;;;;;;;3.63;1.70;;;9.70;99.90;;;;;;5094267;28;20047;-83
2023/04/15 10:53:30;;;;;;;4.55;1.77;;;9.70;99.90;;;;;;5111905;28;20141;-82
2023/04/15 10:55:59;;;;;;;5.10;1.48;;;9.60;99.90;;;;;;5094824;28;20503;-83
2023/04/15 10:58:25;;;;;;;4.63;1.83;;;9.60;99.90;;;;;;5111972;28;20507;-83
2023/04/15 11:00:52;;;;;;;4.25;1.98;;;9.60;99.90;;;;;;5111594;28;20036;-83
2023/04/15 11:03:39;;;;;;;4.70;1.80;;;9.60;99.90;;;;;;5110402;28;20118;-83
2023/04/15 11:06:06;;;;;;;5.43;2.35;;;9.50;99.90;;;;;;5094029;28;20511;-83
2023/04/15 11:08:53;;;;;;;2.67;1.65;;;9.60;99.90;;;;;;5094357;28;20069;-83
2023/04/15 11:11:19;;;;;;;2.45;1.42;;;9.60;99.90;;;;;;5097343;28;20048;-83
2023/04/15 11:13:51;;;;;;;2.40;1.48;;;9.60;99.90;;;;;;5094292;28;20051;-83
2023/04/15 11:16:17;;;;;;;5.43;1.80;;;9.70;99.90;;;;;;5110852;28;20043;-83
2023/04/15 11:18:53;;;;;;;5.43;1.60;;;9.70;99.90;;;;;;5111038;28;20062;-82
2023/04/15 11:21:26;;;;;;;5.22;1.92;;;9.70;99.90;;;;;;5076948;28;20153;-82
2023/04/15 11:23:52;;;;;;;4.70;2.50;;;9.70;99.90;;;;;;5110923;28;20107;-83
2023/04/15 11:26:18;;;;;;;4.80;1.45;;;9.80;99.90;;;;;;5076330;28;20123;-82
2023/04/15 11:28:44;;;;;;;4.17;1.30;;;9.80;99.90;;;;;;5077427;28;20180;-82
2023/04/15 11:31:11;;;;;;;;;;;9.90;99.90;;;;;;5110685;28;20273;-83
2023/04/15 11:33:45;;;;;;;4.95;1.33;;;10.00;99.90;;;;;;5110802;28;19916;-82
2023/04/15 11:36:11;;;;;;;3.42;1.20;;;10.20;99.90;;;;;;5110417;28;20128;-83
2023/04/15 11:38:41;;;;;;;4.90;1.65;;;10.20;99.90;;;;;;5093775;28;20074;-82
2023/04/15 11:41:06;;;;;;;5.10;1.33;;;10.40;99.90;;;;;;5110108;28;20104;-82
2023/04/15 11:43:34;;;;;;;7.72;1.27;;;10.40;99.90;;;;;;5076867;28;20214;-82
2023/04/15 11:46:01;;;;;;;4.85;1.95;;;10.30;99.90;;;;;;5093440;28;20379;-82
2023/04/15 11:48:29;;;;;;;6.63;1.52;;;10.20;99.90;;;;;;5110548;28;20050;-82
2023/04/15 11:51:00;;;;;;;7.05;1.58;;;10.20;99.90;;;;;;5110500;28;20039;-83
2023/04/15 11:53:45;;;;;;;6.30;1.52;;;10.20;99.90;;;;;;5109994;28;20134;-82
2023/04/15 11:56:16;;;;;;;4.72;1.30;;;10.10;99.90;;;;;;5109657;28;20097;-82
2023/04/15 11:58:42;;;;;;;8.60;1.67;;;10.10;99.90;;;;;;5110658;28;20603;-83
2023/04/15 12:01:08;;;;;;;5.47;1.55;;;10.10;99.90;;;;;;5076183;28;20043;-83
2023/04/15 12:03:44;;;;;;;7.72;1.20;;;10.10;99.90;;;;;;5110054;28;20039;-83
2023/04/15 12:06:19;;;;;;;7.82;2.03;;;10.00;99.90;;;;;;5109346;28;20039;-83
2023/04/15 12:08:54;;;;;;;5.78;1.52;;;10.00;99.90;;;;;;5109963;28;20089;-82
2023/04/15 12:11:34;;;;;;;4.35;1.30;;;10.20;99.90;;;;;;5109320;28;20036;-82
2023/04/15 12:14:12;;;;;;;10.38;1.63;;;10.20;99.90;;;;;;5110289;28;20039;-82
2023/04/15 12:16:47;;;;;;;5.70;1.10;;;10.20;99.90;;;;;;5092822;28;20040;-83
2023/04/15 12:19:14;;;;;;;4.88;1.30;;;10.10;99.90;;;;;;5109578;28;20047;-82
2023/04/15 12:21:43;;;;;;;4.68;1.98;;;10.30;99.90;;;;;;5110560;28;20377;-83
2023/04/15 12:24:11;;;;;;;7.32;1.50;;;10.30;99.90;;;;;;5092147;28;20537;-83
2023/04/15 12:26:43;;;;;;;5.82;1.70;;;10.30;99.90;;;;;;5109773;28;20040;-83
2023/04/15 12:29:11;;;;;;;5.15;1.67;;;10.30;99.90;;;;;;5109790;28;20122;-82
2023/04/15 12:31:50;;;;;;;5.40;1.25;;;10.30;99.90;;;;;;5092631;28;20043;-83
2023/04/15 12:34:16;;;;;;;10.27;1.65;;;10.20;99.90;;;;;;5109551;28;20130;-82
2023/04/15 12:36:42;;;;;;;9.00;1.67;;;10.10;99.90;;;;;;5110002;28;20086;-82
2023/04/15 12:39:08;;;;;;;5.43;1.27;;;10.10;99.90;;;;;;5109685;28;20101;-82
2023/04/15 12:41:34;;;;;;;4.45;1.30;;;9.90;99.90;;;;;;5110029;28;20071;-83
2023/04/15 12:44:00;;;;;;;7.70;1.30;;;10.10;99.90;;;;;;5109726;28;20040;-83
2023/04/15 12:46:27;;;;;;;3.75;1.20;;;10.10;99.90;;;;;;5095329;28;20495;-82
2023/04/15 12:48:53;;;;;;;6.90;1.23;;;10.10;99.90;;;;;;5113739;28;20046;-82
2023/04/15 12:51:22;;;;;;;7.32;1.38;;;10.20;99.90;;;;;;5114469;28;20105;-83
2023/04/15 12:53:48;;;;;;;3.40;0.95;;;10.10;99.90;;;;;;5113683;28;20043;-82